Date High Temp Low Temp Barometric Pressure Relative Humidity @7am Temp @9am Moisture Snow
12/31/02 15 1 29.39 61% 8
12/30/02 34 6 29.01 63% 6 Trace
12/29/02 32 8 28.65 89% 19 Trace
12/28/02 33 7 29.17 64% 8
12/27/02 37 15 29.96 72% 16
12/26/02 32 11 29.02 68% 15
12/25/02 27 10 29.18 68% 10
12/24/02 23 11 29.07 76% 19
12/23/02 17 10 29.19 70% 11
12/22/02 23 9 29.97 70% 10 .01″ 1″
12/21/02 24 18 29.74 77% 19 .01″ 1″
12/19/02 35 26 29.4 80% 27 .05″ 1.5″
12/18/02 36 31 28.59 87% 35 .02″ Ice
12/17/02 31 26 28.82 85% 31 Trace Ice
12/16/02 27 16 29.19 80% 26
12/15/02 29 6 29.34 77% 15
12/14/02 41 20 29.2 66% 22
12/13/02 33 29 28.85 86% 29
12/12/02 33 20 29.12 84% 31
12/11/02 39 25 29.02 83% 30
12/10/02 43 13 29.96 85% 25
12/09/02 30 18 29.1 75% 19
12/08/02 20 -3 29.09 70% 19
12/07/02 22 -2 29.47 54% -2
12/06/02 30 -2 29.97 70% 17
12/04/02 18 -4 30.19 62% 4
12/03/02 16 -6 29.57 56% -4
12/02/02 10 -17 29.63 58% -5
12/01/02 22 -8 29.24 59% -5
11/30/02 16 2 29.89 66% 13 .01″ .75″
11/29/02 39 2 29.05 58% 2 Trace
11/28/02 35 27 29.32 79% 34
11/27/02 30 -1 29.93 64% 22
11/26/02 23 -5 29.36 60% -1
11/25/02 28 -16 29.6 60% 0
11/24/02 26 15 29.39 73% 16
11/23/02 34 19 29.22 74% 19 .03″ 1.5″
11/22/02 36 18 28.77 84% 30
11/21/02 33 18 29.25 73% 18 Trace
11/20/02 34 29 29.09 78% 30 .08″ 2.0″
11/19/02 36 29 29.08 80% 29 .04″ 1.5″
11/18/02 38 27 28.91 83% 33
11/17/02 32 23 28.99 73% 28
11/16/02 29 15 29.22 74% 26
11/15/02 26 1 29.41 71% 15
11/14/02 30 -1 29.32 66% 4 Trace
11/13/02 24 14 29.1 73% 17 .01″ 1″
11/12/02 34 12 29.11 71% 14 .02″ 3″
11/11/02 33 20 29.09 72% 29 Trace
11/10/02 37 19 29.03 73% 20
11/09/02 39 35 28.54 89% 37
11/08/02 42 31 28.61 29% 35
11/07/02 49 27 28.68 33% 36
11/06/02 35 10 28.81 27% 27
11/05/02 36 28 28.92 29% 32
11/04/02 31 25 29 30% 28
11/03/02 41 25 29.21 30% 25
11/02/02 39 20 29.01 29% 26
11/01/02 33 22 29.18 30% 27
10/31/02 39 23 29.27 31% 23
10/30/02 39 27 29.4 33% 30 .09″ Trace
10/29/02 29 19 29.24 30% 22 .18″ 2″
10/28/02 35 22 29.33 31% 27 .05″ 1″
10/27/02 36 27 29.32 33% 34 .02″ Trace
10/26/02 35 31 29.33 32% 31 .05″ 1″
10/25/02 35 28 29.11 33% 32 .03″ 1″
10/24/02 39 20 29.3 30% 28
10/23/02 32 25 29.54 30% 27 Trace
10/22/02 29 27 29.66 29% 28 Trace
10/21/02 34 22 29.59 29% 25
10/20/02 34 25 29.35 37% 27 Trace
10/19/02 36 33 27.89 37% 33 0.07 3″
10/18/02 49 23 27.89 33% 35
10/17/02 40 22 28.06 32% 25
10/16/02 40 20 28.23 33% 23
10/15/02 43 27 28.1 41% 31 .09″ Trace
10/14/02 34 19 28.25 43% 31 .12″ 1″
10/13/02 32 25 28.25 43% 27 .08″ 2″
10/12/02 61 46 28.11 47% 46 .43″
10/10/02 28.27 45% 40
10/08/02 28.29 49% 40 .12″
10/07/02 49 32 29.97 87% 40
10/06/02 42 29 30.02 82% 32 .15″
10/05/02 52 37 28.03 86% 41 Trace
10/04/02 New weather station installed.
9/2/02 Struck by lightning.
9/1/02 76 60 29.75 98% 60 .17″
8/31/02 78 57 30.03 98% 64 .08″
8/30/02 77 54 30.27 98% 56
8/29/02 75 60 30.28 98% 62 .02″
8/28/02 74 54 30.2 98% 61 .06″
8/27/02 71 48 30.3 98% 55
8/26/02 78 48 30.3 93% 48
8/25/02 85 57 30.14 98% 62
8/24/02 81 55 30.08 98% 57
8/23/02 82 49 29.97 98% 60
8/22/02 76 46 30.13 98% 49
8/21/02 67 53 30.15 98% 58
8/20/02 78 50 30.03 98% 53
8/19/02 72 45 30.1 77% 46
8/18/02 69 50 29.98 98% 51
8/17/02 55 52 29.96 98% 54 015″
8/16/02 75 55 29.52 98% 57 .47″
8/15/02 64 56 29.92 98% 57 .63″
8/14/02 66 51 29.64 98% 59 .55″
8/13/02 75 43 29.74 98% 51
8/12/02 74 55 29.87 95% 55 .05″
8/11/02 79 56 29.81 98% 60 .27″
8/10/02 76 57 29.87 98% 59 .35″
8/9/02 86 62 29.93 98% 66
8/8/02 83 52 30.1 98% 62 .03″
8/7/02 70 52 30.31 98% 52
8/6/02 75 41 30.45 98% 49
8/5/02 74 43 30.41 96% 53
8/4/02 78 50 30.31 80% 56
8/3/02 64 56 30.15 98% 61
8/2/02 73 49 30.18 97% 56
8/1/02 71 51 30.12 98% 55 1.67″
7/31/02 78 55 29.78 98%% 62
7/30/02 86 50 29.98 98% 55
7/29/02 84 59 29.92 97% 64
7/28/02 86 64 29.78 98% 67 0.04
7/27/02 79 59 29.76 98% 64 2.67″
7/26/02 88 55 29.85 98% 60
7/25/02 71 57 29.9 58% 57
7/24/02 76 50 30.03 98% 58 .08″
7/23/02 77 43 30.32 98% 50
7/22/02 73 43 30.29 98% 45
7/21/02 82 59 29.89 92% 61 .30″
7/20/02 86 62 29.86 98% 71
7/19/02 89 55 30.03 84% 62
7/8/02 89 62 30.27 69% 63
7/7/02 86 65 30.14 98% 65 .40″
7/6/02 89 60 30.31 98% 70 Trace
7/5/02 64 52 30.29 93% 60 .15″
7/4/02 81 55 30.38 61% 56
7/3/02 85 55 30.27 68% 59
7/2/02 86 57 30.09 93% 61
7/1/02 90 64 30.06 93% 65
6/30/02 94 61 30.08 80% 64
6/29/02 91 67 30.03 98% 72
6/28/02 89 59 30.08 89% 68
6/27/02 85 53 30.1 97% 66
6/26/02 70 50 30.03 98% 53 .05″
6/25/02 87 59 29.95 98% 64 .17″
6/24/02 81 57 30.07 98% 69 .02″
6/23/02 77 60 30.11 98% 61 .52″
6/22/02 74 58 30.13 98% 63 .82″
6/21/02 75 45 30.34 89% 58
6/20/02 76 51 30.47 98% 57
6/19/02 65 58 30.15 98% 58 .52″
6/18/02 77 47 30.01 93% 58 .05″
6/17/02 75 37 30.13 93% 46
6/15/02 70 46 30 98% 51
6/14/02 74 51 29.97 90% 53 .03″
6/12/02 70 48 30.03 98% 50 .31″
6/11/02 56 49 30.12 98% 50 .11″
6/10/02 81 55 29.93 98% 55 .35″
06/09/02 62 52 30.03 88% 55 .02″
6/8/02 81 46 30.27 86% 53
6/7/02 71 49 30.13 95% 50
6/6/02 79 40 29.97 67% 63
6/5/02 79 40 30.08 64% 54
6/4/02 70 38 30.13 76% 53
6/3/02 61 40 30.12 88% 47 Trace
6/2/02 58 30 30.19 67% 40
6/1/02 76 37 30.2 65% 45
5/31/02 81 52 29.89 68% 57 .02″
5/30/02 79 50 29.86 39% 55 .14″
5/29/02 83 54 29.87 43% 56 .45″
5/28/02 81 51 30.05 98% 54 .04″
5/27/02 78 38 30.18 61% 51
5/26/02 72 37 30.15 67% 50
5/25/02 59 35 29.96 48% 45
5/24/02 68 30 30.17 71% 37 Trace
5/23/02 68 33 30.27 78% 34
5/22/02 71 35 29.72 90% 58
5/21/02 69 35 30.14 64% 41
5/20/02 64 26 30.45 49% 38
5/19/02 44 25 30.55 95% 32
5/18/02 55 23 30.5 40% 40
5/16/02 48 27 30.36 84% 27
5/15/02 70 29 30.1 82% 29
5/14/02 60 29 29.94 59% 37
5/13/02 59 33 30.27 88% 33
5/12/02 51 27 30.2 98% 36 .05″
5/11/02 58 30 30.34 98% 38 .13″
5/10/02 53 28 30.42 97% 31
5/9/02 41 27 30.34 98% 28 .28″ .5″
5/8/02 37 33 29.64 98% 35 .25″
5/7/02 56 31 30.25 78% 33
5/6/02 50 30 30.31 98% 31 .07″
5/5/02 51 32 30.1 96% 36 .09″ Trace
5/4/02 51 24 30.32 60% 31 .25″
5/3/02 54 24 30.08 51% 43
5/2/02 38 23 30.13 98% 27 .2″ 2″
5/1/02 54 22 29.81 96% 24 0.06″ 1.5″
4/30/02 53 24 30.01 97% 24
4/29/02 48 31 29.96 82% 33 0.02″
4/28/02 39 30 29.91 98% 31 .10″ 1″
4/27/02 44 20 30.09 81% 31 .15″ .75″
4/26/02 44 20 30.4 40% 24
4/25/02 35 19 30.32 51% 20 Trace
4/24/02 45 23 29.92 77% 23 .15″ Trace
4/23/02 51 21 29.74 98% 42 Trace
4/22/02 49 18 30.2 95% 21
4/21/02 43 18 30.22 87% 21
4/20/02 45 18 30.35 88% 29
4/19/02 42 21 30.45 92% 23
4/18/02 46 27 30.23 85% 27 .62″ Trace
4/17/02 59 31 30.11 98% 36
4/16/02 77 41 29.84 86% 48 .09″
4/15/02 70 34 29.81 98% 42
4/14/02 63 33 29.83 98% 34 .12″
4/13/02 62 33 29.77 98% 41
4/12/02 59 31 30.28 98% 32
4/11/02 40 31 30.17 98% 31
4/10/02 43 32 30.13 98% 34 .19″ Trace
4/9/02 45 28 30.46 90% 32
4/8/02 36 28 30.28 80% 28
4/7/02 53 29 30.07 88% 31
4/6/02 34 24 29.79 98% 33
4/5/02 38 1 30.47 74% 24
4/4/02 32 12 30.47 80% 23
4/3/02 30 9 30.54 68% 17
4/2/02 40 17 30.36 65% 18 Flurries
4/1/02 42 6 30.1 79% 21
3/31/02 31 6 30.08 89% 15
3/30/02 41 17 29.99 88% 18 Trace
3/29/02 47 24 29.81 72% 27 Trace
3/28/02 38 27 29.75 98% 28 .3″ 5″
3/27/02 39 18 29.69 98% 31
3/26/02 40 -5 30.23 76% 18
3/25/02 36 -6 30.49 72% -5
3/24/02 19 -9 30.6 35% -7
3/23/02 34 -5 30.46 34% 17
3/22/02 32 7 29.88 77% 16
3/21/02 18 -6 30.13 44% 7 Trace
3/20/02 18 -6 30.44 53% -2 Trace
3/19/02 36 8 30.37 58% 9
3/18/02 47 17 30.66 85% 27 Trace 1″
3/17/02 40 10 30.95 91% 18
3/16/02 47 -1 30.63 83% 10
3/15/02 40 -2 30.33 59% -1
3/14/02 29 5 29.86 54% 16 Trace
3/13/02 36 0 30.04 68% 6
3/12/02 37 19 29.6 67% 21
3/11/02 27 -3 29.8 93% 19 .1″ 1.5″
3/10/02 22 -2 29.95 46% 9
3/9/02 9 -1 30.04 84% -1 .5″ 6″
3/8/02 25 5 29.45 84% 6
3/7/02 19 1 29.89 70% 12 .52″ 7″
3/6/02 24 -6 30.19 35% 1
3/4/02 21 -11 29.83 53% 3 Trace
3/3/02 6 -16 29.74 35% -11
3/2/02 18 -16 29.92 35% -16
3/1/02 17 -10 30.1 34% -5
2/28/02 22 -14 30.13 55% -10
2/27/02 30 -4 29.63 36% 11 Trace
2/26/02 19 -8 29.89 40% -4
2/25/02 24 5 29.98 75% 6 Trace
2/24/02 29 11 29.98 82% 11 Trace
2/23/02 36 21 29.86 54% 28
2/22/02 39 -2 29.66 90% 27
2/21/02 37 -5 30.1 56% -2
2/20/02 27 -1 30.07 65% -1
2/19/02 36 13 29.17 86% 14 .3″ 5.5″
2/18/02 50 24 29.8 63% 31
2/17/02 29 -4 29.66 95% 24
2/16/02 27 -5 30.04 77% -4
2/15/02 31 16 29.68 95% 17
2/14/02 43 22 29.68 80% 22
2/13/02 38 8 29.57 73% 25
2/12/02 17 -2 29.89 45% 8
2/11/02 36 10 29.51 86% 10 Trace
2/10/02 25 -1 29.8 90% 18
2/9/02 32 9 30.22 90% 9 Trace
2/8/02 32 26 30.07 98% 26 Trace
2/7/02 35 18 29.8 95% 26
2/6/02 41 18 29.71 76% 18
2/5/02 25 9 29.71 91% 19
2/4/02 27 -17 30.04 73% 9
2/3/02 15 -17 30.22 56% -16
2/2/02 25 2 29.95 57% 14
2/1/02 18 -9 30.01 52% 2
1/31/02 27 8 29.92 90% 12 .04″ .5″
1/30/02 23 1 30.13 93% 14 .12″ 1″
1/29/02 10 -11 30.13 91% 1 Trace
1/28/02 8 -12 30.04 91% -11 Trace
1/27/02 21 3 30.01 91% 3 Trace
1/26/02 25 11 29.71 93% 21
1/25/02 32 10 29.8 78% 11
1/24/02 16 7 29.6 79% 11 Trace
1/23/02 16 -1 29.77 67% 7 .03″ 2″
1/22/02 31 16 29.71 88% 16
1/21/02 27 14 29.63 98% 23 .06″ 1.5″
1/20/02 22 -1 29.51 89% 14 .04″ .75″
1/19/02 23 3 29.63 79% 4 .12″ 2″
1/18/02 10 -15 29.51 54% 10
1/17/02 17 -15 29.95 54% -15
1/16/02 19 4 29.74 57% 11 .05″ .75″
1/15/02 21 7 29.89 74% 8 Trace
1/14/02 24 16 29.83 90% 16 .02″ .75″
1/13/02 24 15 29.68 98% 20
1/12/02 31 9 29.66 76% 24 Trace
1/11/02 30 23 29.57 89% 26 .20″ .5″
1/10/02 33 23 29.71 98% 27
1/9/02 36 31 29.66 98% 31
1/8/02 36 19 29.27 98% 32
1/7/02 28 1 29.39 97% 20
1/6/02 12 -5 29.8 53% 8
1/5/02 27 5 29.89 82% 5 .01″ .5″
1/4/02 27 13 29.66 88% 19
1/3/02 30 -2 29.6 94% 13
1/2/02 16 0 29.95 79% 1
1/1/02 16 -1 30.22 61% 6 Trace